Time;durP1;ratioP1;P1;durP2;ratioP2;P2;SDS_P1;SDS_P2;PMS_P1;PMS_P2;Temp;Humidity;BMP_temperature;BMP_pressure;BME280_temperature;BME280_humidity;BME280_pressure;Samples;Min_cycle;Max_cycle;Signal;HPM_P1;HPM_P2
2021/01/31 00:00:59;;;;;;;23.15;8.50;;;;;;;;;;4955632;29;20507;-83
2021/01/31 00:03:27;;;;;;;19.52;6.53;;;;;;;;;;4955323;29;20023;-85
2021/01/31 00:05:54;;;;;;;19.25;7.20;;;;;;;;;;4955202;29;20507;-84
2021/01/31 00:08:24;;;;;;;19.38;7.13;;;;;;;;;;4956235;29;20030;-84
2021/01/31 00:10:51;;;;;;;16.65;6.25;;;;;;;;;;4955041;29;20555;-84
2021/01/31 00:13:18;;;;;;;26.20;7.75;;;;;;;;;;4962141;29;20070;-84
2021/01/31 00:15:45;;;;;;;20.85;6.78;;;;;;;;;;4959040;28;20061;-83
2021/01/31 00:18:13;;;;;;;16.63;6.00;;;;;;;;;;4955035;29;20027;-83
2021/01/31 00:20:40;;;;;;;19.42;7.07;;;;;;;;;;4954821;28;20057;-84
2021/01/31 00:23:06;;;;;;;19.13;6.47;;;;;;;;;;4954842;29;20110;-83
2021/01/31 00:25:33;;;;;;;21.15;7.45;;;;;;;;;;4954724;29;20035;-84
2021/01/31 00:27:59;;;;;;;15.32;6.00;;;;;;;;;;4954688;29;20050;-83
2021/01/31 00:30:30;;;;;;;18.15;5.68;;;;;;;;;;4954830;29;20023;-83
2021/01/31 00:32:57;;;;;;;21.63;7.22;;;;;;;;;;4954600;29;20062;-84
2021/01/31 00:35:24;;;;;;;20.15;7.18;;;;;;;;;;4954392;29;20023;-83
2021/01/31 00:37:51;;;;;;;16.08;6.65;;;;;;;;;;4954455;29;20035;-83
2021/01/31 00:40:18;;;;;;;22.20;6.60;;;;;;;;;;4954491;29;20023;-84
2021/01/31 00:42:44;;;;;;;23.90;7.10;;;;;;;;;;4954644;29;20541;-84
2021/01/31 00:45:16;;;;;;;17.63;6.78;;;;;;;;;;4956344;29;20421;-83
2021/01/31 00:47:43;;;;;;;18.27;6.60;;;;;;;;;;4955988;29;20027;-83
2021/01/31 00:50:13;;;;;;;21.92;7.00;;;;;;;;;;4956111;29;20027;-84
2021/01/31 00:52:39;;;;;;;19.83;6.90;;;;;;;;;;4954879;29;20023;-84
2021/01/31 00:55:06;;;;;;;17.80;6.65;;;;;;;;;;4955906;29;20082;-83
2021/01/31 00:57:32;;;;;;;17.83;5.82;;;;;;;;;;4954946;29;20027;-83
2021/01/31 00:59:58;;;;;;;20.73;7.00;;;;;;;;;;4956227;29;20043;-83
2021/01/31 01:02:25;;;;;;;14.57;6.13;;;;;;;;;;4971820;29;20028;-83
2021/01/31 01:04:51;;;;;;;20.55;6.47;;;;;;;;;;4957592;29;20079;-83
2021/01/31 01:07:18;;;;;;;18.83;6.40;;;;;;;;;;4955939;28;20035;-84
2021/01/31 01:09:47;;;;;;;17.13;6.25;;;;;;;;;;4958108;29;20023;-84
2021/01/31 01:12:14;;;;;;;18.95;5.97;;;;;;;;;;4958028;29;20038;-84
2021/01/31 01:14:40;;;;;;;16.40;7.00;;;;;;;;;;4959745;29;20051;-87
2021/01/31 01:17:06;;;;;;;20.70;6.53;;;;;;;;;;4958091;29;20035;-84
2021/01/31 01:19:33;;;;;;;16.00;6.45;;;;;;;;;;4958189;29;20082;-84
2021/01/31 01:21:59;;;;;;;18.13;6.13;;;;;;;;;;4993011;28;20048;-85
2021/01/31 01:24:26;;;;;;;19.77;6.32;;;;;;;;;;4980294;28;20029;-82
2021/01/31 01:26:53;;;;;;;16.27;5.18;;;;;;;;;;4997834;28;20427;-85
2021/01/31 01:29:19;;;;;;;17.73;5.32;;;;;;;;;;4980544;28;20058;-83
2021/01/31 01:31:46;;;;;;;19.55;6.28;;;;;;;;;;4997626;28;20080;-84
2021/01/31 01:34:12;;;;;;;17.88;5.18;;;;;;;;;;4980195;28;20518;-83
2021/01/31 01:36:38;;;;;;;18.33;6.25;;;;;;;;;;4980154;28;20395;-83
2021/01/31 01:39:05;;;;;;;13.70;5.30;;;;;;;;;;4997571;28;20050;-84
2021/01/31 01:41:41;;;;;;;15.85;5.45;;;;;;;;;;4998020;28;20022;-82
2021/01/31 01:44:08;;;;;;;15.32;6.45;;;;;;;;;;4980041;28;20029;-85
2021/01/31 01:46:36;;;;;;;16.30;6.43;;;;;;;;;;4979919;28;20150;-82
2021/01/31 01:49:08;;;;;;;20.67;6.97;;;;;;;;;;4980049;28;20029;-83
2021/01/31 01:51:42;;;;;;;15.60;6.22;;;;;;;;;;4979794;28;20030;-82
2021/01/31 01:54:11;;;;;;;19.38;6.22;;;;;;;;;;4979827;28;20062;-83
2021/01/31 01:56:41;;;;;;;16.42;5.95;;;;;;;;;;4979425;28;20034;-83
2021/01/31 01:59:07;;;;;;;19.00;6.85;;;;;;;;;;4979644;28;20498;-83
2021/01/31 02:01:34;;;;;;;15.77;5.97;;;;;;;;;;4979806;28;20034;-83
2021/01/31 02:04:01;;;;;;;14.00;5.00;;;;;;;;;;4979439;28;20049;-83
2021/01/31 02:06:28;;;;;;;15.10;5.63;;;;;;;;;;4979495;28;20026;-83
2021/01/31 02:08:55;;;;;;;14.63;5.55;;;;;;;;;;4996959;28;20448;-83
2021/01/31 02:11:22;;;;;;;20.92;5.45;;;;;;;;;;4996827;28;20475;-84
2021/01/31 02:13:52;;;;;;;20.77;6.28;;;;;;;;;;4979452;28;20130;-83
2021/01/31 02:16:28;;;;;;;14.70;5.63;;;;;;;;;;4979233;28;20031;-83
2021/01/31 02:19:00;;;;;;;13.88;6.30;;;;;;;;;;4979381;28;20030;-85
2021/01/31 02:21:51;;;;;;;12.25;4.72;;;;;;;;;;4963835;28;20039;-84
2021/01/31 02:24:23;;;;;;;15.45;5.88;;;;;;;;;;4958739;29;20487;-86
2021/01/31 02:27:03;;;;;;;21.23;6.65;;;;;;;;;;4956820;29;20027;-84
2021/01/31 02:29:35;;;;;;;16.83;5.88;;;;;;;;;;4956882;29;20030;-84
2021/01/31 02:32:04;;;;;;;17.15;5.10;;;;;;;;;;4956710;29;20480;-83
2021/01/31 02:34:33;;;;;;;13.38;5.25;;;;;;;;;;4956640;29;20023;-84
2021/01/31 02:37:18;;;;;;;14.63;5.22;;;;;;;;;;4956787;29;20499;-83
2021/01/31 02:39:47;;;;;;;14.82;5.30;;;;;;;;;;4957904;29;20039;-84
2021/01/31 02:42:40;;;;;;;11.55;4.70;;;;;;;;;;4956550;29;20114;-84
2021/01/31 02:45:12;;;;;;;13.80;4.72;;;;;;;;;;4927701;29;20042;-83
2021/01/31 02:47:40;;;;;;;17.70;6.22;;;;;;;;;;4956592;29;20027;-84
2021/01/31 02:50:08;;;;;;;12.73;5.60;;;;;;;;;;4956632;29;20476;-84
2021/01/31 02:52:38;;;;;;;12.00;4.50;;;;;;;;;;4956842;29;20058;-83
2021/01/31 02:55:09;;;;;;;14.50;5.28;;;;;;;;;;4957879;29;20507;-87
2021/01/31 02:57:47;;;;;;;12.10;5.00;;;;;;;;;;4956425;29;20114;-82
2021/01/31 03:00:32;;;;;;;15.13;5.70;;;;;;;;;;4956142;29;20127;-83
2021/01/31 03:03:02;;;;;;;14.25;5.22;;;;;;;;;;4956326;29;20086;-86
2021/01/31 03:05:33;;;;;;;12.95;3.95;;;;;;;;;;4956392;29;20118;-83
2021/01/31 03:08:08;;;;;;;19.10;5.38;;;;;;;;;;4957795;29;20122;-83
2021/01/31 03:10:47;;;;;;;11.88;4.82;;;;;;;;;;4956070;29;20045;-83
2021/01/31 03:13:17;;;;;;;15.15;4.35;;;;;;;;;;4957959;29;20027;-86
2021/01/31 03:15:59;;;;;;;17.23;5.05;;;;;;;;;;4956269;29;20042;-84
2021/01/31 03:18:31;;;;;;;12.90;5.15;;;;;;;;;;4956053;29;20209;-83
2021/01/31 03:21:17;;;;;;;14.18;4.80;;;;;;;;;;4955938;28;20141;-81
2021/01/31 03:23:46;;;;;;;11.07;4.68;;;;;;;;;;4959807;29;20037;-85
2021/01/31 03:26:37;;;;;;;10.55;4.57;;;;;;;;;;4956491;29;20114;-82
2021/01/31 03:29:03;;;;;;;12.85;5.00;;;;;;;;;;4955539;28;20027;-83
2021/01/31 03:31:31;;;;;;;15.50;5.30;;;;;;;;;;4955340;29;20384;-84
2021/01/31 03:34:06;;;;;;;17.63;5.28;;;;;;;;;;4955678;29;20038;-84
2021/01/31 03:36:34;;;;;;;14.77;5.38;;;;;;;;;;4955603;29;20043;-84
2021/01/31 03:39:01;;;;;;;11.68;5.10;;;;;;;;;;4955345;29;20031;-84
2021/01/31 03:41:29;;;;;;;13.70;4.55;;;;;;;;;;4955464;29;20031;-82
2021/01/31 03:43:55;;;;;;;15.70;5.30;;;;;;;;;;4955501;29;20035;-83
2021/01/31 03:46:28;;;;;;;13.25;4.68;;;;;;;;;;4955441;29;20488;-84
2021/01/31 03:48:58;;;;;;;13.18;4.38;;;;;;;;;;4955413;29;20035;-84
2021/01/31 03:51:24;;;;;;;11.90;5.05;;;;;;;;;;4955589;29;20187;-83
2021/01/31 03:53:51;;;;;;;15.98;4.85;;;;;;;;;;4954950;29;20042;-82
2021/01/31 03:56:21;;;;;;;10.93;4.18;;;;;;;;;;4956392;29;20031;-84
2021/01/31 03:58:49;;;;;;;13.45;4.60;;;;;;;;;;4955514;29;20030;-84
2021/01/31 04:01:17;;;;;;;15.57;4.90;;;;;;;;;;4955312;29;20038;-85
2021/01/31 04:03:47;;;;;;;12.60;4.25;;;;;;;;;;4955366;29;20043;-84
2021/01/31 04:06:19;;;;;;;16.25;4.43;;;;;;;;;;4955344;29;20035;-85
2021/01/31 04:08:51;;;;;;;10.50;3.67;;;;;;;;;;4955237;29;20082;-85
2021/01/31 04:11:36;;;;;;;14.00;4.00;;;;;;;;;;4955313;29;20027;-84
2021/01/31 04:14:09;;;;;;;18.40;5.03;;;;;;;;;;4955440;29;20034;-85
2021/01/31 04:16:44;;;;;;;9.10;4.20;;;;;;;;;;4955644;29;20094;-84
2021/01/31 04:19:10;;;;;;;13.25;4.03;;;;;;;;;;4955042;29;20027;-83
2021/01/31 04:21:37;;;;;;;10.57;3.65;;;;;;;;;;4954881;28;20043;-82
2021/01/31 04:24:04;;;;;;;13.05;4.25;;;;;;;;;;4956339;29;20031;-83
2021/01/31 04:26:30;;;;;;;11.52;4.07;;;;;;;;;;4952442;29;20110;-83
2021/01/31 04:28:57;;;;;;;10.75;3.60;;;;;;;;;;4954711;29;20384;-82
2021/01/31 04:31:25;;;;;;;11.50;4.38;;;;;;;;;;4954363;29;20035;-82
2021/01/31 04:33:51;;;;;;;12.85;4.82;;;;;;;;;;4954795;29;20063;-83
2021/01/31 04:36:18;;;;;;;12.93;4.82;;;;;;;;;;4954380;29;20035;-83
2021/01/31 04:38:44;;;;;;;14.30;5.00;;;;;;;;;;4956026;29;20038;-88
2021/01/31 04:41:10;;;;;;;12.70;5.13;;;;;;;;;;4954567;29;20027;-83
2021/01/31 04:43:37;;;;;;;12.25;4.57;;;;;;;;;;4954354;29;20038;-81
2021/01/31 04:46:05;;;;;;;11.23;3.55;;;;;;;;;;4955641;29;20102;-83
2021/01/31 04:48:31;;;;;;;9.55;3.78;;;;;;;;;;4954583;29;20035;-83
2021/01/31 04:51:07;;;;;;;15.45;4.55;;;;;;;;;;4954556;29;20039;-84
2021/01/31 04:53:48;;;;;;;9.65;3.30;;;;;;;;;;4954730;29;20030;-84
2021/01/31 04:56:33;;;;;;;9.50;3.22;;;;;;;;;;4954445;29;20043;-81
2021/01/31 04:59:19;;;;;;;12.73;4.38;;;;;;;;;;4954844;29;20035;-86
2021/01/31 05:01:45;;;;;;;14.32;4.20;;;;;;;;;;4941586;29;20035;-87
2021/01/31 05:04:13;;;;;;;10.50;3.38;;;;;;;;;;4955128;29;20031;-88
2021/01/31 05:06:43;;;;;;;8.48;3.40;;;;;;;;;;4955144;29;20027;-89
2021/01/31 05:09:14;;;;;;;7.00;3.65;;;;;;;;;;4954885;29;20543;-88
2021/01/31 05:11:47;;;;;;;9.10;3.80;;;;;;;;;;4954381;29;20027;-89
2021/01/31 05:14:29;;;;;;;8.55;2.75;;;;;;;;;;4954880;29;20027;-81
2021/01/31 05:16:55;;;;;;;10.57;3.00;;;;;;;;;;4955711;29;20043;-80
2021/01/31 05:19:24;;;;;;;11.13;3.17;;;;;;;;;;4954141;29;20027;-81
2021/01/31 05:21:50;;;;;;;6.88;2.58;;;;;;;;;;4953886;28;20086;-82
2021/01/31 05:24:21;;;;;;;12.38;3.40;;;;;;;;;;4954591;29;20028;-87
2021/01/31 05:26:56;;;;;;;8.00;2.60;;;;;;;;;;4954626;29;20103;-85
2021/01/31 05:29:24;;;;;;;8.35;3.50;;;;;;;;;;4954735;29;20031;-81
2021/01/31 05:31:55;;;;;;;8.57;3.20;;;;;;;;;;4954629;29;20031;-83
2021/01/31 05:34:51;;;;;;;6.40;2.78;;;;;;;;;;4955187;29;20034;-84
2021/01/31 05:37:18;;;;;;;7.07;2.75;;;;;;;;;;4930229;29;20097;-84
2021/01/31 05:39:46;;;;;;;8.25;2.72;;;;;;;;;;4955491;29;20031;-85
2021/01/31 05:42:18;;;;;;;13.05;3.40;;;;;;;;;;4955432;29;20100;-86
2021/01/31 05:44:44;;;;;;;11.57;3.17;;;;;;;;;;4977042;29;20039;-83
2021/01/31 05:47:24;;;;;;;6.55;2.47;;;;;;;;;;4960689;29;20078;-86
2021/01/31 05:49:53;;;;;;;7.45;2.00;;;;;;;;;;4953851;29;20078;-84
2021/01/31 05:52:19;;;;;;;9.02;2.03;;;;;;;;;;4954333;28;20038;-84
2021/01/31 05:54:46;;;;;;;7.50;2.70;;;;;;;;;;4957306;29;20551;-84
2021/01/31 05:57:21;;;;;;;9.15;3.10;;;;;;;;;;4957928;29;20038;-84
2021/01/31 05:59:48;;;;;;;6.95;3.20;;;;;;;;;;4957602;29;20107;-84
2021/01/31 06:02:30;;;;;;;6.82;2.90;;;;;;;;;;4957610;29;20474;-84
2021/01/31 06:05:15;;;;;;;5.80;2.67;;;;;;;;;;4957597;29;20035;-84
2021/01/31 06:07:43;;;;;;;8.68;3.22;;;;;;;;;;4957474;29;20054;-83
2021/01/31 06:10:11;;;;;;;6.13;2.70;;;;;;;;;;4957439;29;20074;-82
2021/01/31 06:12:38;;;;;;;8.77;3.13;;;;;;;;;;4957523;29;20099;-85
2021/01/31 06:15:08;;;;;;;7.60;3.08;;;;;;;;;;4958575;29;20030;-82
2021/01/31 06:17:36;;;;;;;7.95;2.83;;;;;;;;;;4959051;29;20035;-84
2021/01/31 06:20:11;;;;;;;9.90;4.15;;;;;;;;;;4959664;28;20479;-89
2021/01/31 06:22:41;;;;;;;9.07;3.33;;;;;;;;;;4979444;28;20030;-82
2021/01/31 06:25:10;;;;;;;8.88;3.28;;;;;;;;;;4979128;28;20026;-82
2021/01/31 06:27:37;;;;;;;9.15;3.13;;;;;;;;;;4979466;28;20027;-82
2021/01/31 06:30:15;;;;;;;7.43;2.75;;;;;;;;;;4996662;28;20065;-79
2021/01/31 06:32:41;;;;;;;6.45;2.88;;;;;;;;;;4978963;28;20093;-82
2021/01/31 06:35:12;;;;;;;9.75;3.42;;;;;;;;;;4979338;28;20054;-87
2021/01/31 06:37:54;;;;;;;9.23;3.17;;;;;;;;;;4978590;28;20029;-82
2021/01/31 06:40:40;;;;;;;7.57;2.90;;;;;;;;;;4979396;28;20041;-82
2021/01/31 06:43:25;;;;;;;12.15;3.75;;;;;;;;;;4978539;28;20061;-80
2021/01/31 06:46:06;;;;;;;13.95;4.07;;;;;;;;;;4978848;28;20117;-80
2021/01/31 06:48:33;;;;;;;7.68;2.83;;;;;;;;;;4978585;28;20033;-78
2021/01/31 06:51:14;;;;;;;6.38;2.42;;;;;;;;;;4996127;28;20023;-76
2021/01/31 06:53:50;;;;;;;6.80;2.83;;;;;;;;;;4978329;28;20490;-78
2021/01/31 06:56:35;;;;;;;6.78;2.60;;;;;;;;;;4978361;28;20034;-77
2021/01/31 06:59:20;;;;;;;9.05;2.70;;;;;;;;;;4996503;28;20041;-79
2021/01/31 07:01:53;;;;;;;7.85;2.58;;;;;;;;;;4978156;28;20475;-79
2021/01/31 07:04:38;;;;;;;8.57;3.40;;;;;;;;;;4994843;28;20082;-78
2021/01/31 07:07:10;;;;;;;7.38;2.55;;;;;;;;;;4978087;28;20069;-78
2021/01/31 07:09:36;;;;;;;9.45;2.97;;;;;;;;;;4977976;28;20030;-79
2021/01/31 07:12:16;;;;;;;7.47;2.90;;;;;;;;;;4977945;28;20031;-79
2021/01/31 07:15:08;;;;;;;9.20;3.97;;;;;;;;;;4977819;28;20410;-80
2021/01/31 07:17:39;;;;;;;6.40;2.90;;;;;;;;;;4990521;28;20133;-81
2021/01/31 07:20:09;;;;;;;7.50;2.63;;;;;;;;;;4977635;28;20113;-79
2021/01/31 07:22:35;;;;;;;8.00;2.88;;;;;;;;;;4995227;28;20034;-80
2021/01/31 07:25:07;;;;;;;6.22;2.50;;;;;;;;;;4995101;28;20022;-80
2021/01/31 07:27:38;;;;;;;8.02;3.42;;;;;;;;;;4977668;28;20030;-80
2021/01/31 07:30:17;;;;;;;8.88;3.00;;;;;;;;;;4977596;28;20030;-80
2021/01/31 07:32:46;;;;;;;8.20;2.70;;;;;;;;;;4977527;28;20034;-79
2021/01/31 07:35:13;;;;;;;9.70;2.47;;;;;;;;;;4977490;28;20097;-81
2021/01/31 07:37:41;;;;;;;6.53;2.65;;;;;;;;;;4977404;28;20030;-81
2021/01/31 07:40:18;;;;;;;9.32;3.08;;;;;;;;;;4977228;28;20070;-80
2021/01/31 07:42:45;;;;;;;8.13;3.03;;;;;;;;;;4977300;28;20081;-80
2021/01/31 07:45:37;;;;;;;10.35;3.10;;;;;;;;;;4977282;28;20118;-80
2021/01/31 07:48:22;;;;;;;7.10;2.95;;;;;;;;;;4990095;28;20494;-80
2021/01/31 07:50:48;;;;;;;9.18;3.38;;;;;;;;;;4977273;28;20053;-80
2021/01/31 07:53:26;;;;;;;14.25;6.60;;;;;;;;;;4995210;28;20070;-80
2021/01/31 07:55:52;;;;;;;9.73;3.42;;;;;;;;;;4977100;28;20479;-80
2021/01/31 07:58:21;;;;;;;9.50;3.88;;;;;;;;;;4994600;28;20033;-78
2021/01/31 08:00:49;;;;;;;11.85;4.25;;;;;;;;;;4977091;28;20054;-78
2021/01/31 08:03:24;;;;;;;15.27;5.28;;;;;;;;;;4975742;28;20504;-76
2021/01/31 08:05:56;;;;;;;9.55;4.78;;;;;;;;;;4957639;28;20081;-78
2021/01/31 08:08:37;;;;;;;8.98;3.28;;;;;;;;;;4976521;28;20030;-77
2021/01/31 08:11:04;;;;;;;12.20;3.83;;;;;;;;;;4968706;28;20026;-78
2021/01/31 08:13:35;;;;;;;10.10;4.03;;;;;;;;;;4994271;28;20026;-77
2021/01/31 08:16:01;;;;;;;8.95;3.22;;;;;;;;;;4993844;28;20026;-78
2021/01/31 08:18:27;;;;;;;12.80;3.63;;;;;;;;;;4994444;28;20389;-77
2021/01/31 08:20:53;;;;;;;11.13;4.88;;;;;;;;;;4993944;28;20073;-79
2021/01/31 08:23:26;;;;;;;14.05;3.85;;;;;;;;;;4994105;28;20475;-78
2021/01/31 08:25:56;;;;;;;11.13;4.15;;;;;;;;;;4976642;28;20033;-78
2021/01/31 08:28:26;;;;;;;13.82;4.25;;;;;;;;;;4994088;28;20060;-77
2021/01/31 08:31:04;;;;;;;10.50;3.85;;;;;;;;;;4976529;28;20038;-82
2021/01/31 08:33:34;;;;;;;8.63;3.17;;;;;;;;;;4976484;28;20022;-78
2021/01/31 08:36:06;;;;;;;10.32;3.63;;;;;;;;;;4993812;28;20041;-78
2021/01/31 08:38:32;;;;;;;12.00;4.13;;;;;;;;;;4976542;28;20026;-82
2021/01/31 08:41:04;;;;;;;13.38;3.83;;;;;;;;;;4976504;28;20555;-77
2021/01/31 08:43:37;;;;;;;8.88;3.78;;;;;;;;;;4976356;28;20534;-82
2021/01/31 08:46:05;;;;;;;12.13;4.10;;;;;;;;;;4993934;28;20479;-78
2021/01/31 08:48:31;;;;;;;8.85;3.33;;;;;;;;;;4976334;28;20030;-77
2021/01/31 08:51:06;;;;;;;10.45;3.90;;;;;;;;;;4976285;28;20486;-77
2021/01/31 08:53:34;;;;;;;9.57;4.05;;;;;;;;;;4994047;28;20026;-84
2021/01/31 08:56:18;;;;;;;11.88;4.32;;;;;;;;;;4994584;28;20391;-84
2021/01/31 08:58:44;;;;;;;7.75;3.08;;;;;;;;;;4975849;28;20479;-77
2021/01/31 09:01:10;;;;;;;16.63;4.15;;;;;;;;;;4975960;28;20031;-77
2021/01/31 09:03:40;;;;;;;10.38;3.95;;;;;;;;;;4976188;28;20368;-79
2021/01/31 09:06:06;;;;;;;12.88;4.38;;;;;;;;;;4976293;28;20027;-77
2021/01/31 09:08:32;;;;;;;12.65;4.15;;;;;;;;;;4976243;28;20106;-76
2021/01/31 09:10:58;;;;;;;11.88;3.88;;;;;;;;;;4976268;28;20023;-78
2021/01/31 09:13:26;;;;;;;17.17;4.88;;;;;;;;;;4976228;28;20200;-76
2021/01/31 09:15:53;;;;;;;8.18;3.83;;;;;;;;;;4993624;28;20109;-77
2021/01/31 09:18:23;;;;;;;16.83;4.53;;;;;;;;;;4975274;28;20023;-79
2021/01/31 09:20:50;;;;;;;8.98;3.28;;;;;;;;;;4992590;28;20046;-78
2021/01/31 09:23:23;;;;;;;11.52;3.58;;;;;;;;;;4993466;28;20026;-79
2021/01/31 09:25:51;;;;;;;13.25;4.15;;;;;;;;;;4978041;28;20038;-82
2021/01/31 09:28:28;;;;;;;12.07;4.15;;;;;;;;;;4994391;28;20038;-84
2021/01/31 09:30:56;;;;;;;9.73;4.50;;;;;;;;;;4980180;28;20026;-75
2021/01/31 09:33:37;;;;;;;9.52;3.80;;;;;;;;;;4978649;28;20146;-77
2021/01/31 09:36:16;;;;;;;11.68;3.55;;;;;;;;;;4978858;28;20038;-74
2021/01/31 09:38:42;;;;;;;12.32;3.55;;;;;;;;;;4996808;28;20475;-76
2021/01/31 09:41:08;;;;;;;12.15;4.38;;;;;;;;;;4979645;28;20462;-74
2021/01/31 09:43:35;;;;;;;12.55;3.33;;;;;;;;;;4979503;28;20030;-74
2021/01/31 09:46:02;;;;;;;13.00;4.50;;;;;;;;;;4996379;28;20439;-76
2021/01/31 09:48:30;;;;;;;14.73;4.65;;;;;;;;;;4977718;28;20026;-73
2021/01/31 09:50:58;;;;;;;11.73;3.78;;;;;;;;;;4996401;28;20031;-76
2021/01/31 09:53:27;;;;;;;9.15;3.58;;;;;;;;;;4979248;28;20037;-77
2021/01/31 09:55:53;;;;;;;11.75;5.05;;;;;;;;;;4979197;28;20387;-73
2021/01/31 09:58:39;;;;;;;11.48;4.43;;;;;;;;;;4979184;28;20033;-77
2021/01/31 10:01:14;;;;;;;13.70;4.55;;;;;;;;;;4981907;28;20037;-74
2021/01/31 10:03:40;;;;;;;10.38;4.13;;;;;;;;;;4976680;28;20031;-73
2021/01/31 10:06:14;;;;;;;11.43;3.92;;;;;;;;;;4985406;28;20070;-73
2021/01/31 10:09:00;;;;;;;13.77;4.50;;;;;;;;;;4995959;28;20379;-73
2021/01/31 10:11:47;;;;;;;13.10;4.78;;;;;;;;;;4976954;28;20188;-74
2021/01/31 10:14:14;;;;;;;14.00;4.90;;;;;;;;;;4977647;28;20038;-73
2021/01/31 10:16:42;;;;;;;11.10;4.78;;;;;;;;;;4996150;28;20056;-73
2021/01/31 10:19:21;;;;;;;13.18;4.95;;;;;;;;;;4996138;28;20454;-74
2021/01/31 10:21:54;;;;;;;10.68;4.35;;;;;;;;;;4996142;28;20593;-74
2021/01/31 10:24:30;;;;;;;13.05;4.88;;;;;;;;;;4978631;28;20494;-74
2021/01/31 10:27:06;;;;;;;9.40;4.68;;;;;;;;;;4996262;28;20027;-74
2021/01/31 10:29:33;;;;;;;12.77;4.90;;;;;;;;;;4996152;28;20390;-74
2021/01/31 10:32:17;;;;;;;13.85;5.22;;;;;;;;;;4995757;28;20120;-74
2021/01/31 10:34:43;;;;;;;11.90;5.03;;;;;;;;;;4996057;28;20134;-75
2021/01/31 10:37:17;;;;;;;12.40;5.15;;;;;;;;;;4995801;28;20034;-74
2021/01/31 10:39:43;;;;;;;12.45;5.65;;;;;;;;;;4995875;28;20030;-77
2021/01/31 10:42:10;;;;;;;11.10;5.03;;;;;;;;;;4995329;28;20467;-75
2021/01/31 10:44:36;;;;;;;16.75;5.30;;;;;;;;;;4995213;28;20033;-75
2021/01/31 10:47:03;;;;;;;12.18;5.15;;;;;;;;;;4995493;28;20092;-75
2021/01/31 10:49:29;;;;;;;15.90;5.05;;;;;;;;;;4995667;28;20084;-77
2021/01/31 10:51:55;;;;;;;16.02;5.65;;;;;;;;;;4995659;28;20038;-75
2021/01/31 10:54:22;;;;;;;11.38;5.25;;;;;;;;;;4995687;28;20113;-77
2021/01/31 10:56:48;;;;;;;14.43;4.97;;;;;;;;;;4995449;28;20038;-77
2021/01/31 10:59:14;;;;;;;13.80;5.57;;;;;;;;;;4995435;28;20030;-74
2021/01/31 11:01:44;;;;;;;17.63;5.90;;;;;;;;;;4995138;28;20112;-74
2021/01/31 11:04:10;;;;;;;14.73;5.88;;;;;;;;;;4995182;28;20033;-73
2021/01/31 11:06:36;;;;;;;15.70;6.00;;;;;;;;;;4995206;28;20080;-76
2021/01/31 11:09:04;;;;;;;14.70;5.75;;;;;;;;;;4995092;28;20077;-74
2021/01/31 11:11:30;;;;;;;13.90;5.30;;;;;;;;;;4995215;28;20037;-74
2021/01/31 11:13:56;;;;;;;12.52;5.32;;;;;;;;;;4995017;28;20487;-74
2021/01/31 11:16:22;;;;;;;14.43;5.15;;;;;;;;;;4995158;28;20117;-74
2021/01/31 11:18:48;;;;;;;15.30;6.22;;;;;;;;;;4994862;28;20026;-75
2021/01/31 11:21:16;;;;;;;14.77;6.65;;;;;;;;;;4994735;28;20431;-72
2021/01/31 11:23:42;;;;;;;15.90;6.72;;;;;;;;;;4995115;28;20026;-73
2021/01/31 11:26:08;;;;;;;15.60;5.93;;;;;;;;;;4994788;28;20160;-73
2021/01/31 11:28:34;;;;;;;12.40;5.28;;;;;;;;;;4977456;28;20125;-74
2021/01/31 11:31:01;;;;;;;16.83;6.03;;;;;;;;;;4977544;28;20394;-77
2021/01/31 11:33:27;;;;;;;14.07;5.82;;;;;;;;;;4977477;28;20023;-77
2021/01/31 11:35:53;;;;;;;14.07;6.75;;;;;;;;;;4977283;28;20574;-76
2021/01/31 11:38:19;;;;;;;19.13;6.38;;;;;;;;;;4977334;28;20053;-74
2021/01/31 11:40:45;;;;;;;17.13;6.22;;;;;;;;;;4976779;28;20509;-76
2021/01/31 11:43:11;;;;;;;16.73;6.72;;;;;;;;;;4976658;28;20076;-74
2021/01/31 11:45:37;;;;;;;17.02;6.13;;;;;;;;;;4976839;28;20036;-76
2021/01/31 11:48:03;;;;;;;20.40;7.07;;;;;;;;;;4977017;28;20434;-76
2021/01/31 11:50:29;;;;;;;19.80;6.70;;;;;;;;;;4976664;28;20030;-73
2021/01/31 11:52:55;;;;;;;19.13;6.57;;;;;;;;;;4994507;28;20034;-73
2021/01/31 11:55:22;;;;;;;21.40;7.43;;;;;;;;;;4976711;28;20026;-75
2021/01/31 11:57:48;;;;;;;15.38;6.22;;;;;;;;;;4976981;28;20035;-74
2021/01/31 12:00:15;;;;;;;20.13;6.97;;;;;;;;;;4990173;28;20026;-75
2021/01/31 12:02:41;;;;;;;21.60;7.65;;;;;;;;;;4996430;28;20022;-75
2021/01/31 12:05:13;;;;;;;21.65;7.78;;;;;;;;;;4996015;28;20080;-74
2021/01/31 12:07:39;;;;;;;21.52;8.70;;;;;;;;;;4996264;28;20030;-75
2021/01/31 12:10:05;;;;;;;20.83;7.47;;;;;;;;;;4996088;28;20026;-72
2021/01/31 12:12:32;;;;;;;19.23;7.88;;;;;;;;;;5014200;28;20548;-74
2021/01/31 12:14:58;;;;;;;26.73;9.38;;;;;;;;;;4996094;28;20041;-75
2021/01/31 12:17:24;;;;;;;19.13;7.38;;;;;;;;;;4996241;28;20030;-73
2021/01/31 12:19:50;;;;;;;18.58;7.25;;;;;;;;;;4996124;28;20026;-73
2021/01/31 12:22:16;;;;;;;17.05;6.88;;;;;;;;;;4995912;28;20060;-73
2021/01/31 12:24:43;;;;;;;21.77;7.50;;;;;;;;;;4996029;28;20033;-75
2021/01/31 12:27:09;;;;;;;17.58;6.32;;;;;;;;;;5013571;28;20022;-74
2021/01/31 12:29:35;;;;;;;16.13;6.55;;;;;;;;;;4996068;28;20367;-77
2021/01/31 12:32:01;;;;;;;18.42;7.70;;;;;;;;;;4995823;28;20121;-74
2021/01/31 12:34:27;;;;;;;22.33;8.93;;;;;;;;;;4995921;28;20088;-73
2021/01/31 12:36:53;;;;;;;16.27;7.50;;;;;;;;;;4995895;28;20133;-76
2021/01/31 12:39:19;;;;;;;19.75;8.00;;;;;;;;;;4995942;28;20109;-73
2021/01/31 12:41:46;;;;;;;20.38;8.05;;;;;;;;;;4995882;28;20029;-75
2021/01/31 12:44:12;;;;;;;22.80;8.15;;;;;;;;;;5013343;28;20482;-74
2021/01/31 12:46:38;;;;;;;19.65;7.85;;;;;;;;;;4995772;28;20034;-73
2021/01/31 12:49:04;;;;;;;19.67;8.63;;;;;;;;;;5013314;28;20032;-74
2021/01/31 12:51:31;;;;;;;18.48;8.13;;;;;;;;;;4995664;28;20549;-75
2021/01/31 12:53:57;;;;;;;20.88;8.18;;;;;;;;;;4995564;28;20490;-77
2021/01/31 12:56:23;;;;;;;17.70;7.40;;;;;;;;;;4995717;28;20103;-74
2021/01/31 12:58:49;;;;;;;17.48;6.95;;;;;;;;;;5011583;28;20494;-77
2021/01/31 13:01:15;;;;;;;20.42;7.95;;;;;;;;;;4976220;28;20035;-76
2021/01/31 13:03:41;;;;;;;20.85;8.07;;;;;;;;;;4995364;28;20384;-73
2021/01/31 13:06:07;;;;;;;21.33;8.85;;;;;;;;;;4980167;28;20030;-75
2021/01/31 13:08:33;;;;;;;22.42;8.68;;;;;;;;;;4980195;28;20034;-74
2021/01/31 13:10:59;;;;;;;21.60;8.68;;;;;;;;;;4980041;28;20376;-76
2021/01/31 13:13:26;;;;;;;21.23;8.18;;;;;;;;;;4980093;28;20022;-75
2021/01/31 13:15:52;;;;;;;21.85;7.13;;;;;;;;;;4979840;28;20042;-75
2021/01/31 13:18:18;;;;;;;22.23;8.30;;;;;;;;;;4980062;28;20026;-73
2021/01/31 13:20:44;;;;;;;23.77;8.55;;;;;;;;;;4997236;28;20073;-74
2021/01/31 13:23:10;;;;;;;20.08;7.43;;;;;;;;;;4979860;28;20026;-75
2021/01/31 13:25:36;;;;;;;25.85;9.10;;;;;;;;;;4979810;28;20125;-77
2021/01/31 13:28:02;;;;;;;22.42;8.93;;;;;;;;;;4979831;28;20030;-76
2021/01/31 13:30:30;;;;;;;18.50;7.13;;;;;;;;;;4979693;28;20034;-74
2021/01/31 13:32:56;;;;;;;15.88;6.90;;;;;;;;;;4979682;28;20483;-75
2021/01/31 13:35:23;;;;;;;19.40;7.63;;;;;;;;;;4979543;28;20049;-75
2021/01/31 13:37:49;;;;;;;20.67;7.60;;;;;;;;;;4979201;28;20037;-76
2021/01/31 13:40:16;;;;;;;20.58;8.48;;;;;;;;;;4979679;28;20065;-77
2021/01/31 13:42:42;;;;;;;21.60;8.27;;;;;;;;;;4979588;28;20023;-77
2021/01/31 13:45:11;;;;;;;19.45;7.57;;;;;;;;;;4979563;28;20046;-74
2021/01/31 13:47:37;;;;;;;25.15;8.73;;;;;;;;;;4979374;28;20030;-73
2021/01/31 13:50:03;;;;;;;21.35;9.38;;;;;;;;;;4979343;28;20054;-74
2021/01/31 13:52:29;;;;;;;18.08;7.10;;;;;;;;;;4979363;28;20033;-74
2021/01/31 13:54:56;;;;;;;16.25;7.55;;;;;;;;;;4979346;28;20073;-74
2021/01/31 13:57:24;;;;;;;20.00;8.15;;;;;;;;;;4979367;28;20125;-75
2021/01/31 13:59:50;;;;;;;22.95;8.05;;;;;;;;;;5006737;28;20030;-74
2021/01/31 14:02:16;;;;;;;21.80;8.27;;;;;;;;;;5016370;28;20367;-74
2021/01/31 14:04:43;;;;;;;23.20;8.27;;;;;;;;;;4998613;28;20522;-74
2021/01/31 14:07:09;;;;;;;29.25;8.88;;;;;;;;;;4998446;28;20033;-75
2021/01/31 14:09:35;;;;;;;23.80;8.63;;;;;;;;;;5016188;28;20038;-76
2021/01/31 14:12:01;;;;;;;25.98;9.38;;;;;;;;;;4998421;28;20022;-74
2021/01/31 14:14:27;;;;;;;18.73;8.13;;;;;;;;;;5015495;28;20058;-75
2021/01/31 14:16:53;;;;;;;22.58;8.43;;;;;;;;;;4998315;28;20112;-74
2021/01/31 14:19:19;;;;;;;22.23;7.75;;;;;;;;;;5016157;28;20072;-74
2021/01/31 14:21:54;;;;;;;18.95;7.30;;;;;;;;;;4982464;28;20100;-76
2021/01/31 14:24:20;;;;;;;20.65;9.02;;;;;;;;;;4978620;28;20022;-76
2021/01/31 14:26:46;;;;;;;21.08;7.95;;;;;;;;;;4977631;28;20490;-74
2021/01/31 14:29:13;;;;;;;19.00;7.82;;;;;;;;;;4978148;28;20420;-76
2021/01/31 14:31:39;;;;;;;17.60;7.28;;;;;;;;;;4978166;28;20112;-78
2021/01/31 14:34:05;;;;;;;19.30;7.47;;;;;;;;;;4989195;28;20041;-76
2021/01/31 14:36:31;;;;;;;20.25;7.43;;;;;;;;;;4981230;28;20049;-75
2021/01/31 14:38:58;;;;;;;24.85;8.60;;;;;;;;;;4997059;28;20093;-76
2021/01/31 14:41:24;;;;;;;23.58;8.82;;;;;;;;;;4996077;28;20363;-77
2021/01/31 14:43:51;;;;;;;21.77;8.18;;;;;;;;;;4978566;28;20026;-77
2021/01/31 14:46:17;;;;;;;23.65;9.10;;;;;;;;;;4996442;28;20026;-76
2021/01/31 14:48:44;;;;;;;21.48;9.25;;;;;;;;;;4995919;28;20023;-77